Time;durP1;ratioP1;P1;durP2;ratioP2;P2;SDS_P1;SDS_P2;PMS_P1;PMS_P2;Temp;Humidity;BMP_temperature;BMP_pressure;BME280_temperature;BME280_humidity;BME280_pressure;Samples;Min_cycle;Max_cycle;Signal;HPM_P1;HPM_P2
2021/06/29 00:01:32;;;;;;;24.80;6.43;;;17.60;99.90;;;;;;4998687;28;20046;-90
2021/06/29 00:03:58;;;;;;;26.25;6.60;;;17.60;99.90;;;;;;5009828;28;20442;-90
2021/06/29 00:06:24;;;;;;;29.13;6.22;;;17.50;99.90;;;;;;5010927;28;20452;-90
2021/06/29 00:08:50;;;;;;;21.33;5.90;;;17.50;99.90;;;;;;4994579;28;20633;-91
2021/06/29 00:11:16;;;;;;;36.75;7.00;;;17.50;99.90;;;;;;5010369;28;20041;-92
2021/06/29 00:13:44;;;;;;;25.25;7.53;;;17.40;99.90;;;;;;4978304;28;20052;-91
2021/06/29 00:16:09;;;;;;;33.85;7.97;;;17.40;99.90;;;;;;5010944;28;20045;-90
2021/06/29 00:18:35;;;;;;;26.92;7.13;;;17.40;99.90;;;;;;5010162;28;20092;-90
2021/06/29 00:21:01;;;;;;;25.50;6.85;;;17.40;99.90;;;;;;5010096;28;20393;-90
2021/06/29 00:23:27;;;;;;;21.50;6.28;;;17.40;99.90;;;;;;4994236;28;20049;-90
2021/06/29 00:25:52;;;;;;;20.73;6.18;;;17.40;99.90;;;;;;4994357;28;20034;-91
2021/06/29 00:28:18;;;;;;;26.65;6.97;;;17.40;99.90;;;;;;5005634;28;20061;-92
2021/06/29 00:30:44;;;;;;;23.33;7.45;;;17.40;99.90;;;;;;4994373;28;20042;-90
2021/06/29 00:33:10;;;;;;;23.85;6.82;;;17.40;99.90;;;;;;5006059;28;20042;-92
2021/06/29 00:35:36;;;;;;;28.70;6.88;;;17.40;99.90;;;;;;5011744;28;20046;-90
2021/06/29 00:38:02;;;;;;;23.90;6.90;;;17.30;99.90;;;;;;5011131;28;20049;-89
2021/06/29 00:40:29;;;;;;;25.60;7.35;;;17.30;99.90;;;;;;4980057;28;20061;-90
2021/06/29 00:42:55;;;;;;;25.08;6.78;;;17.30;99.90;;;;;;4993513;28;20042;-91
2021/06/29 00:45:21;;;;;;;24.83;6.47;;;17.30;99.90;;;;;;4993393;28;20038;-90
2021/06/29 00:47:47;;;;;;;20.88;6.93;;;17.30;99.90;;;;;;5026592;28;20038;-90
2021/06/29 00:50:14;;;;;;;26.40;7.68;;;17.20;99.90;;;;;;4995050;28;20050;-91
2021/06/29 00:52:40;;;;;;;25.45;6.90;;;17.30;99.90;;;;;;4978177;28;20049;-91
2021/06/29 00:55:10;;;;;;;22.67;7.80;;;17.20;99.90;;;;;;4994018;28;20065;-91
2021/06/29 00:57:36;;;;;;;29.13;8.18;;;17.20;99.90;;;;;;5010548;28;20529;-91
2021/06/29 01:00:08;;;;;;;26.52;7.35;;;17.20;99.90;;;;;;4993737;28;20046;-91
2021/06/29 01:02:34;;;;;;;30.42;9.07;;;17.20;99.90;;;;;;5007643;28;20041;-90
2021/06/29 01:05:00;;;;;;;26.42;7.72;;;17.10;99.90;;;;;;5009624;28;20441;-91
2021/06/29 01:07:25;;;;;;;26.63;7.40;;;17.10;99.90;;;;;;4994108;28;20041;-89
2021/06/29 01:09:51;;;;;;;23.08;6.25;;;17.20;99.90;;;;;;4993007;28;20038;-91
2021/06/29 01:12:17;;;;;;;27.52;8.20;;;17.10;99.90;;;;;;4992166;28;20045;-89
2021/06/29 01:14:43;;;;;;;20.63;6.68;;;17.10;99.90;;;;;;5012334;28;20048;-89
2021/06/29 01:17:09;;;;;;;26.00;8.40;;;17.10;99.90;;;;;;5012654;28;20116;-89
2021/06/29 01:19:44;;;;;;;26.52;6.97;;;17.10;99.90;;;;;;5017532;28;20488;-89
2021/06/29 01:22:11;;;;;;;31.73;8.50;;;17.10;99.90;;;;;;5003139;28;20046;-90
2021/06/29 01:24:37;;;;;;;24.80;7.18;;;17.10;99.90;;;;;;4993375;28;20073;-89
2021/06/29 01:29:51;;;;;;;25.55;7.57;;;17.10;99.90;;;;;;5014280;28;20034;-91
2021/06/29 01:32:18;;;;;;;26.63;8.43;;;17.00;99.90;;;;;;5008571;28;20045;-90
2021/06/29 01:34:45;;;;;;;33.58;9.30;;;17.00;99.90;;;;;;5021906;28;20045;-89
2021/06/29 01:37:11;;;;;;;33.08;8.30;;;17.00;99.90;;;;;;5014618;28;20125;-90
2021/06/29 01:39:37;;;;;;;26.48;7.55;;;17.00;99.90;;;;;;5019591;28;20046;-89
2021/06/29 01:42:04;;;;;;;23.35;7.65;;;16.90;99.90;;;;;;4998565;28;20073;-91
2021/06/29 01:44:33;;;;;;;21.48;6.47;;;16.90;99.90;;;;;;5017245;28;20118;-91
2021/06/29 01:47:00;;;;;;;21.00;7.07;;;16.90;99.90;;;;;;4997946;28;20064;-90
2021/06/29 01:49:30;;;;;;;13.82;6.32;;;16.90;99.90;;;;;;5013452;28;20125;-91
2021/06/29 01:51:56;;;;;;;19.63;6.72;;;16.80;99.90;;;;;;5014701;28;20048;-90
2021/06/29 01:54:23;;;;;;;26.38;7.03;;;16.70;99.90;;;;;;5019383;28;20096;-91
2021/06/29 01:56:50;;;;;;;27.38;7.32;;;16.60;99.90;;;;;;4997489;28;20056;-91
2021/06/29 01:59:21;;;;;;;22.98;7.80;;;16.60;99.90;;;;;;5029301;28;20084;-90
2021/06/29 02:01:47;;;;;;;31.55;8.23;;;16.60;99.90;;;;;;4982468;28;20050;-90
2021/06/29 02:04:13;;;;;;;28.70;8.52;;;16.60;99.90;;;;;;5028321;28;20049;-89
2021/06/29 02:06:40;;;;;;;40.08;9.30;;;16.60;99.90;;;;;;5017483;28;20046;-90
2021/06/29 02:09:10;;;;;;;26.60;8.60;;;16.60;99.90;;;;;;5028178;28;20461;-90
2021/06/29 02:11:38;;;;;;;18.73;6.40;;;16.60;99.90;;;;;;5012140;28;20065;-89
2021/06/29 02:14:05;;;;;;;21.00;7.68;;;16.60;99.90;;;;;;5011823;28;20053;-91
2021/06/29 02:16:32;;;;;;;29.88;7.88;;;16.60;99.90;;;;;;5012616;28;20137;-89
2021/06/29 02:18:58;;;;;;;30.42;8.85;;;16.50;99.90;;;;;;4996552;28;20037;-91
2021/06/29 02:21:24;;;;;;;29.88;8.85;;;16.50;99.90;;;;;;4984676;28;20121;-89
2021/06/29 02:23:50;;;;;;;28.25;9.50;;;16.50;99.90;;;;;;5011108;28;20054;-91
2021/06/29 02:26:16;;;;;;;19.90;7.55;;;16.50;99.90;;;;;;5011137;28;20042;-89
2021/06/29 02:28:42;;;;;;;22.98;8.23;;;16.50;99.90;;;;;;4996203;28;20049;-91
2021/06/29 02:31:09;;;;;;;16.55;7.82;;;16.40;99.90;;;;;;5013198;28;20128;-89
2021/06/29 02:33:35;;;;;;;21.98;8.23;;;16.40;99.90;;;;;;5012098;28;20481;-89
2021/06/29 02:36:01;;;;;;;34.17;8.48;;;16.40;99.90;;;;;;5012326;28;20042;-89
2021/06/29 02:38:27;;;;;;;20.25;8.30;;;16.40;99.90;;;;;;5011261;28;20052;-89
2021/06/29 02:40:54;;;;;;;31.65;9.05;;;16.40;99.90;;;;;;5011796;28;20136;-89
2021/06/29 02:43:20;;;;;;;25.15;8.57;;;16.40;99.90;;;;;;5010877;28;20041;-89
2021/06/29 02:45:47;;;;;;;20.65;7.18;;;16.40;99.90;;;;;;4995569;28;20374;-89
2021/06/29 02:48:13;;;;;;;23.80;7.47;;;16.40;99.90;;;;;;4994742;28;21261;-88
2021/06/29 02:50:40;;;;;;;20.33;6.78;;;16.40;99.90;;;;;;5032889;28;20072;-89
2021/06/29 02:53:05;;;;;;;33.53;8.77;;;16.40;99.90;;;;;;5021816;28;20041;-92
2021/06/29 02:55:32;;;;;;;28.00;9.82;;;16.40;99.90;;;;;;4998788;28;20099;-90
2021/06/29 02:57:58;;;;;;;17.90;6.57;;;16.40;99.90;;;;;;4998265;28;20041;-89
2021/06/29 03:00:23;;;;;;;29.85;9.02;;;16.40;99.90;;;;;;5031058;28;20401;-90
2021/06/29 03:02:50;;;;;;;30.05;9.93;;;16.50;99.90;;;;;;5019458;28;20129;-90
2021/06/29 03:05:16;;;;;;;31.30;10.75;;;16.50;99.90;;;;;;5032753;28;20083;-90
2021/06/29 03:07:43;;;;;;;28.23;8.05;;;16.50;99.90;;;;;;5032207;28;20048;-90
2021/06/29 03:10:09;;;;;;;23.33;8.55;;;16.40;99.90;;;;;;5031668;28;20052;-92
2021/06/29 03:12:36;;;;;;;23.08;7.75;;;16.40;99.90;;;;;;5016165;28;20038;-90
2021/06/29 03:15:03;;;;;;;28.85;9.75;;;16.40;99.90;;;;;;5031826;28;20041;-92
2021/06/29 03:17:29;;;;;;;37.67;11.35;;;16.40;99.90;;;;;;5031099;28;20060;-90
2021/06/29 03:19:56;;;;;;;15.05;8.13;;;16.50;99.90;;;;;;5014144;28;20041;-89
2021/06/29 03:22:22;;;;;;;32.42;12.27;;;16.50;99.90;;;;;;5013618;28;20123;-90
2021/06/29 03:24:49;;;;;;;41.60;12.48;;;16.50;99.90;;;;;;5010478;28;20092;-91
2021/06/29 03:27:15;;;;;;;32.97;10.63;;;16.60;99.90;;;;;;5005811;28;20489;-90
2021/06/29 03:29:41;;;;;;;28.85;9.85;;;16.60;99.90;;;;;;5013732;28;20102;-90
2021/06/29 03:32:08;;;;;;;27.83;9.60;;;16.60;99.90;;;;;;4997222;28;20541;-90
2021/06/29 03:34:34;;;;;;;42.03;9.82;;;16.60;99.90;;;;;;5033068;28;20052;-89
2021/06/29 03:37:01;;;;;;;18.13;7.28;;;16.60;99.90;;;;;;4996700;28;20042;-90
2021/06/29 03:39:28;;;;;;;21.30;7.70;;;16.60;99.90;;;;;;4996853;28;20042;-89
2021/06/29 03:41:54;;;;;;;37.15;9.85;;;16.70;99.90;;;;;;5013127;28;20045;-90
2021/06/29 03:44:20;;;;;;;41.53;11.30;;;16.70;99.90;;;;;;5019125;28;20038;-90
2021/06/29 03:46:46;;;;;;;25.02;8.27;;;16.70;99.90;;;;;;5013333;28;20382;-90
2021/06/29 03:49:12;;;;;;;22.13;6.78;;;16.70;99.90;;;;;;5009421;28;20082;-91
2021/06/29 03:51:38;;;;;;;23.98;7.13;;;16.70;99.90;;;;;;4977281;28;20050;-91
2021/06/29 03:54:04;;;;;;;22.60;8.18;;;16.70;99.90;;;;;;4993888;28;20038;-91
2021/06/29 03:56:32;;;;;;;20.95;7.90;;;16.80;99.90;;;;;;5009067;28;20042;-91
2021/06/29 03:59:04;;;;;;;26.27;7.60;;;16.70;99.90;;;;;;5010435;28;20854;-90
2021/06/29 04:01:30;;;;;;;50.03;10.90;;;16.80;99.90;;;;;;5009723;28;20038;-90
2021/06/29 04:03:57;;;;;;;35.83;10.68;;;16.80;99.90;;;;;;5010379;28;20037;-90
2021/06/29 04:06:28;;;;;;;42.97;11.75;;;16.80;99.90;;;;;;5008451;28;20057;-90
2021/06/29 04:08:55;;;;;;;38.20;10.85;;;16.80;99.90;;;;;;5010478;28;20042;-90
2021/06/29 04:11:22;;;;;;;36.20;8.43;;;16.90;99.90;;;;;;5008105;28;20068;-90
2021/06/29 04:13:48;;;;;;;25.70;10.02;;;16.80;99.90;;;;;;5009136;28;20462;-90
2021/06/29 04:16:14;;;;;;;28.42;9.15;;;16.80;99.90;;;;;;5009669;28;20037;-92
2021/06/29 04:18:42;;;;;;;30.90;9.15;;;16.80;99.90;;;;;;5009105;28;20041;-91
2021/06/29 04:21:08;;;;;;;39.10;10.30;;;16.80;99.90;;;;;;5010074;28;20050;-92
2021/06/29 04:23:35;;;;;;;29.90;8.65;;;16.80;99.90;;;;;;5011536;28;20038;-92
2021/06/29 04:26:02;;;;;;;24.50;9.18;;;16.80;99.90;;;;;;5010756;28;20038;-92
2021/06/29 04:28:28;;;;;;;28.70;10.55;;;16.90;99.90;;;;;;4993126;28;20042;-92
2021/06/29 04:30:54;;;;;;;23.23;9.43;;;16.90;99.90;;;;;;5010009;28;20069;-92
2021/06/29 04:33:21;;;;;;;37.25;9.48;;;16.90;99.90;;;;;;5025811;28;20529;-91
2021/06/29 04:35:47;;;;;;;52.33;13.02;;;16.90;99.90;;;;;;5010261;28;20053;-92
2021/06/29 04:38:13;;;;;;;33.65;9.20;;;17.00;99.90;;;;;;4992481;28;20114;-91
2021/06/29 04:40:39;;;;;;;18.35;6.70;;;17.00;99.90;;;;;;5008564;28;20172;-90
2021/06/29 04:43:05;;;;;;;24.50;8.73;;;17.00;99.90;;;;;;4992712;28;20410;-90
2021/06/29 04:45:31;;;;;;;30.23;7.18;;;17.00;99.90;;;;;;5008634;28;20053;-91
2021/06/29 04:47:57;;;;;;;29.88;7.30;;;17.00;99.90;;;;;;5008178;28;20045;-91
2021/06/29 04:50:24;;;;;;;24.55;7.05;;;17.00;99.90;;;;;;4986687;28;20514;-91
2021/06/29 04:52:51;;;;;;;30.50;8.25;;;17.00;99.90;;;;;;5022340;28;20065;-90
2021/06/29 04:55:18;;;;;;;27.83;6.20;;;17.00;99.90;;;;;;5007152;28;20084;-92
2021/06/29 04:57:44;;;;;;;42.97;9.90;;;17.00;99.90;;;;;;5019986;28;20052;-91
2021/06/29 05:00:13;;;;;;;41.58;9.13;;;17.00;99.90;;;;;;5012564;28;20450;-90
2021/06/29 05:02:39;;;;;;;34.53;7.77;;;17.00;99.90;;;;;;5028868;28;20661;-90
2021/06/29 05:05:07;;;;;;;30.25;7.75;;;17.00;99.90;;;;;;4996519;28;20096;-91
2021/06/29 05:07:35;;;;;;;28.25;7.65;;;17.00;99.90;;;;;;5012323;28;20040;-90
2021/06/29 05:10:01;;;;;;;31.13;7.97;;;17.00;99.90;;;;;;5014630;28;20055;-90
2021/06/29 05:12:27;;;;;;;32.78;7.43;;;17.00;99.90;;;;;;4994746;28;20049;-89
2021/06/29 05:14:53;;;;;;;29.38;7.78;;;17.00;99.90;;;;;;4976280;28;20092;-90
2021/06/29 05:17:19;;;;;;;30.27;7.35;;;17.00;99.90;;;;;;5006272;28;20076;-91
2021/06/29 05:19:44;;;;;;;41.33;8.50;;;17.10;99.90;;;;;;4996328;28;20111;-91
2021/06/29 05:22:10;;;;;;;45.10;9.38;;;17.10;99.90;;;;;;4995949;28;20049;-90
2021/06/29 05:24:36;;;;;;;47.03;11.15;;;17.20;99.90;;;;;;5006493;28;20049;-91
2021/06/29 05:27:02;;;;;;;43.58;10.77;;;17.20;99.90;;;;;;5028264;28;20041;-91
2021/06/29 05:29:28;;;;;;;44.08;10.85;;;17.30;99.90;;;;;;5011108;28;20055;-91
2021/06/29 05:31:54;;;;;;;41.55;11.10;;;17.20;99.90;;;;;;4996575;28;20045;-92
2021/06/29 05:34:20;;;;;;;52.67;10.60;;;17.30;99.90;;;;;;4996041;28;20044;-91
2021/06/29 05:36:46;;;;;;;44.65;10.65;;;17.30;99.90;;;;;;5012893;28;20038;-91
2021/06/29 05:39:15;;;;;;;46.10;11.25;;;17.30;99.90;;;;;;5029708;28;20499;-91
2021/06/29 05:41:41;;;;;;;48.58;11.98;;;17.30;99.90;;;;;;4982370;28;20996;-90
2021/06/29 05:44:08;;;;;;;40.65;10.85;;;17.30;99.90;;;;;;5012698;28;20045;-92
2021/06/29 05:46:34;;;;;;;51.42;12.27;;;17.40;99.90;;;;;;5011780;28;20128;-90
2021/06/29 05:49:02;;;;;;;54.38;12.52;;;17.40;99.90;;;;;;5018015;28;20458;-92
2021/06/29 05:51:28;;;;;;;50.50;12.05;;;17.40;99.90;;;;;;4979843;28;20088;-89
2021/06/29 05:53:54;;;;;;;42.03;10.57;;;17.40;99.90;;;;;;5012841;28;20041;-92
2021/06/29 05:56:20;;;;;;;54.70;12.43;;;17.50;99.90;;;;;;4980074;28;20080;-92
2021/06/29 05:58:45;;;;;;;62.85;12.15;;;17.60;99.90;;;;;;4994509;28;20064;-89
2021/06/29 06:01:11;;;;;;;51.53;12.98;;;17.60;99.90;;;;;;4994558;28;20072;-91
2021/06/29 06:03:37;;;;;;;48.42;11.68;;;17.70;99.90;;;;;;5011445;28;20053;-90
2021/06/29 06:06:03;;;;;;;34.72;10.50;;;17.70;99.90;;;;;;5016011;28;20041;-91
2021/06/29 06:08:29;;;;;;;41.85;10.25;;;17.80;99.90;;;;;;5015575;28;20132;-91
2021/06/29 06:10:55;;;;;;;42.67;10.40;;;17.80;99.90;;;;;;5013564;28;20117;-92
2021/06/29 06:13:22;;;;;;;40.25;10.43;;;17.80;99.90;;;;;;5016564;28;20401;-95
2021/06/29 06:15:49;;;;;;;43.08;10.85;;;17.90;99.90;;;;;;5016598;28;20038;-93
2021/06/29 06:18:15;;;;;;;45.95;9.82;;;18.00;99.90;;;;;;5015722;28;20080;-93
2021/06/29 06:20:41;;;;;;;37.70;9.73;;;18.00;99.90;;;;;;4999914;28;20264;-93
2021/06/29 06:23:07;;;;;;;41.78;10.73;;;18.00;99.90;;;;;;5015843;28;20042;-91
2021/06/29 06:25:34;;;;;;;40.92;10.32;;;18.00;99.90;;;;;;5012376;28;20037;-92
2021/06/29 06:28:01;;;;;;;41.95;10.10;;;18.10;99.90;;;;;;5031840;28;20041;-91
2021/06/29 06:30:28;;;;;;;36.55;10.45;;;18.10;99.90;;;;;;5005357;28;20482;-92
2021/06/29 06:32:54;;;;;;;36.65;9.90;;;18.10;99.90;;;;;;5018984;28;20045;-93
2021/06/29 06:35:20;;;;;;;40.90;10.75;;;18.20;99.90;;;;;;5034271;28;20069;-92
2021/06/29 06:37:45;;;;;;;38.22;9.75;;;18.20;99.90;;;;;;5002228;28;20504;-94
2021/06/29 06:40:12;;;;;;;43.92;10.85;;;18.20;99.90;;;;;;4999309;28;20072;-94
2021/06/29 06:42:38;;;;;;;36.22;10.85;;;18.30;99.90;;;;;;5033042;28;20041;-94
2021/06/29 06:45:08;;;;;;;25.20;10.65;;;18.30;99.90;;;;;;5033306;28;20099;-95
2021/06/29 06:47:35;;;;;;;43.33;17.58;;;18.40;99.90;;;;;;5033694;28;20049;-95
2021/06/29 06:50:02;;;;;;;53.72;19.33;;;18.40;99.90;;;;;;5013205;28;20559;-95
2021/06/29 06:52:28;;;;;;;41.80;17.20;;;18.40;99.90;;;;;;5019775;28;20407;-95
2021/06/29 06:54:53;;;;;;;43.60;17.27;;;18.40;99.90;;;;;;5008842;28;20037;-95
2021/06/29 06:57:19;;;;;;;46.67;17.13;;;18.50;99.90;;;;;;5029079;28;20037;-95
2021/06/29 06:59:45;;;;;;;56.85;17.20;;;18.60;99.90;;;;;;5023788;28;20096;-95
2021/06/29 07:02:11;;;;;;;50.20;16.00;;;18.70;99.90;;;;;;5006005;28;20040;-94
2021/06/29 07:04:37;;;;;;;60.58;18.67;;;18.80;99.90;;;;;;5002552;28;20041;-95
2021/06/29 07:07:03;;;;;;;46.72;16.10;;;18.90;99.90;;;;;;4987858;28;20543;-96
2021/06/29 07:09:29;;;;;;;55.20;18.33;;;19.00;99.90;;;;;;5012195;28;20053;-93
2021/06/29 07:11:55;;;;;;;52.15;18.83;;;19.10;99.90;;;;;;4998542;28;20041;-94
2021/06/29 07:14:21;;;;;;;51.40;15.68;;;19.20;99.90;;;;;;4998015;28;20116;-94
2021/06/29 07:16:47;;;;;;;59.47;17.20;;;19.30;99.90;;;;;;5029123;28;20072;-94
2021/06/29 07:19:13;;;;;;;56.28;16.85;;;19.40;99.90;;;;;;5011982;28;20096;-92
2021/06/29 07:21:39;;;;;;;56.17;17.92;;;19.40;99.90;;;;;;5014033;28;20095;-93
2021/06/29 07:24:05;;;;;;;52.03;16.95;;;19.50;99.90;;;;;;4995067;28;20037;-91
2021/06/29 07:26:31;;;;;;;52.20;18.10;;;19.50;99.90;;;;;;5006240;28;20121;-93
2021/06/29 07:28:57;;;;;;;49.80;16.48;;;19.50;99.90;;;;;;5006387;28;20171;-92
2021/06/29 07:31:23;;;;;;;52.25;15.93;;;19.50;99.90;;;;;;5014962;28;20071;-90
2021/06/29 07:33:50;;;;;;;53.60;16.52;;;19.50;99.90;;;;;;5012073;28;20527;-96
2021/06/29 07:36:17;;;;;;;53.40;16.08;;;19.50;99.90;;;;;;5033494;28;20034;-94
2021/06/29 07:38:45;;;;;;;56.50;17.55;;;19.60;99.90;;;;;;5014584;28;20171;-94
2021/06/29 07:41:12;;;;;;;53.63;17.13;;;19.60;99.90;;;;;;5032974;28;20048;-95
2021/06/29 07:43:38;;;;;;;47.95;15.35;;;19.60;99.90;;;;;;5007301;28;20183;-93
2021/06/29 07:46:04;;;;;;;49.55;14.80;;;19.60;99.90;;;;;;5014158;28;20037;-96
2021/06/29 07:48:31;;;;;;;41.17;14.50;;;19.60;99.90;;;;;;4998780;28;20045;-95
2021/06/29 07:50:57;;;;;;;46.20;14.82;;;19.70;99.90;;;;;;5032377;28;20504;-94
2021/06/29 07:53:23;;;;;;;37.65;14.25;;;19.80;99.90;;;;;;5014413;28;20116;-91
2021/06/29 07:55:49;;;;;;;46.83;13.40;;;19.90;99.90;;;;;;5039013;28;20454;-92
2021/06/29 07:58:16;;;;;;;42.47;12.57;;;20.00;99.90;;;;;;5007757;28;20048;-95
2021/06/29 08:00:43;;;;;;;49.88;14.35;;;20.10;99.90;;;;;;5015142;28;20508;-94
2021/06/29 08:03:08;;;;;;;45.42;13.02;;;20.20;99.90;;;;;;5023093;28;20077;-94
2021/06/29 08:05:34;;;;;;;37.33;12.10;;;20.20;99.90;;;;;;5014910;28;20049;-94
2021/06/29 08:08:00;;;;;;;27.15;10.70;;;20.30;99.90;;;;;;4980052;28;20535;-91
2021/06/29 08:10:26;;;;;;;30.17;12.05;;;20.40;99.90;;;;;;5020481;28;20135;-94
2021/06/29 08:12:53;;;;;;;44.28;13.10;;;20.50;99.90;;;;;;5018733;28;20120;-93
2021/06/29 08:15:19;;;;;;;33.90;11.93;;;20.50;99.90;;;;;;5015959;28;20464;-94
2021/06/29 08:17:46;;;;;;;24.73;10.18;;;20.60;99.90;;;;;;4996197;28;20500;-94
2021/06/29 08:20:14;;;;;;;25.23;11.10;;;20.70;99.90;;;;;;5009465;28;20056;-92
2021/06/29 08:22:41;;;;;;;25.38;11.00;;;20.90;99.90;;;;;;5008962;28;20111;-94
2021/06/29 08:25:07;;;;;;;27.48;11.27;;;21.00;99.90;;;;;;4996722;28;20525;-87
2021/06/29 08:27:34;;;;;;;27.52;10.07;;;21.20;99.90;;;;;;5006253;28;20045;-91
2021/06/29 08:30:00;;;;;;;30.58;11.88;;;21.30;99.90;;;;;;5022465;28;20043;-89
2021/06/29 08:32:26;;;;;;;33.55;11.95;;;21.30;99.90;;;;;;5014966;28;20045;-95
2021/06/29 08:34:55;;;;;;;32.00;11.15;;;21.40;99.90;;;;;;5010780;28;21518;-88
2021/06/29 08:37:22;;;;;;;28.05;11.93;;;21.50;99.90;;;;;;5029082;28;20436;-88
2021/06/29 08:39:48;;;;;;;25.52;10.85;;;21.60;99.90;;;;;;5031943;28;20091;-89
2021/06/29 08:42:21;;;;;;;23.50;11.00;;;21.60;99.90;;;;;;5013334;28;20042;-87
2021/06/29 08:44:47;;;;;;;25.13;10.68;;;21.70;99.90;;;;;;5030989;28;20548;-89
2021/06/29 08:47:13;;;;;;;27.75;12.05;;;21.70;99.90;;;;;;5029717;28;20037;-93
2021/06/29 08:49:40;;;;;;;31.75;12.35;;;21.70;99.90;;;;;;4983768;28;20058;-93
2021/06/29 08:52:08;;;;;;;30.58;12.90;;;21.60;99.90;;;;;;5015919;28;20679;-92
2021/06/29 08:54:35;;;;;;;35.55;11.77;;;21.50;99.90;;;;;;5014164;28;20042;-92
2021/06/29 08:57:04;;;;;;;35.25;12.57;;;21.40;99.90;;;;;;5008819;28;20044;-93
2021/06/29 08:59:30;;;;;;;40.70;12.07;;;21.30;99.90;;;;;;4995192;28;20065;-92
2021/06/29 09:01:59;;;;;;;30.50;11.48;;;21.40;99.90;;;;;;5005128;28;20069;-93
2021/06/29 09:04:48;;;;;;;38.13;12.65;;;21.40;99.90;;;;;;5008624;28;20046;-93
2021/06/29 09:07:28;;;;;;;28.77;11.02;;;21.60;99.90;;;;;;5026159;28;20041;-92
2021/06/29 09:09:57;;;;;;;37.97;12.13;;;21.80;99.90;;;;;;5012970;28;20042;-92
2021/06/29 09:12:48;;;;;;;35.67;11.65;;;22.00;99.90;;;;;;5008942;28;20056;-94
2021/06/29 09:15:34;;;;;;;37.20;12.50;;;22.20;99.90;;;;;;5009722;28;20072;-93
2021/06/29 09:18:06;;;;;;;24.27;10.48;;;22.40;99.90;;;;;;4995701;28;20212;-92
2021/06/29 09:20:35;;;;;;;36.95;11.65;;;22.50;99.90;;;;;;5006175;28;20045;-94
2021/06/29 09:23:28;;;;;;;30.42;11.80;;;22.40;99.90;;;;;;5008325;28;20042;-94
2021/06/29 09:25:59;;;;;;;34.20;11.52;;;22.40;99.90;;;;;;5008632;28;20046;-94
2021/06/29 09:28:29;;;;;;;27.10;11.02;;;22.30;99.90;;;;;;5010652;28;20038;-94
2021/06/29 09:30:55;;;;;;;;;;;22.40;99.90;;;;;;5022669;28;20042;-94
2021/06/29 09:33:32;;;;;;;30.60;11.43;;;22.50;99.90;;;;;;4994046;28;19972;-93
2021/06/29 09:36:02;;;;;;;30.20;12.13;;;22.80;99.90;;;;;;5013481;28;20042;-93
2021/06/29 09:38:32;;;;;;;;;;;22.80;99.90;;;;;;4995610;28;20050;-94
2021/06/29 09:41:03;;;;;;;31.92;13.10;;;23.00;99.90;;;;;;5012168;28;20391;-94
2021/06/29 09:43:32;;;;;;;29.55;11.68;;;23.10;99.90;;;;;;5000773;28;20125;-96
2021/06/29 09:46:01;;;;;;;31.35;11.23;;;23.00;99.90;;;;;;5014314;28;20038;-93
2021/06/29 09:48:39;;;;;;;33.50;11.52;;;22.80;99.90;;;;;;5014346;28;20057;-91
2021/06/29 09:51:16;;;;;;;23.97;10.90;;;22.70;99.90;;;;;;4995695;28;20490;-94
2021/06/29 09:53:47;;;;;;;28.75;10.65;;;22.90;99.90;;;;;;5015914;28;20040;-96
2021/06/29 09:56:16;;;;;;;31.73;12.15;;;23.00;99.90;;;;;;5017234;28;20076;-96
2021/06/29 09:58:46;;;;;;;30.02;11.77;;;23.20;99.90;;;;;;5019113;28;20507;-96
2021/06/29 10:01:15;;;;;;;33.40;10.95;;;23.10;99.90;;;;;;5036858;28;20548;-95
2021/06/29 10:03:43;;;;;;;32.10;11.35;;;23.10;99.90;;;;;;5016339;28;20041;-96
2021/06/29 10:06:13;;;;;;;27.23;10.32;;;23.30;99.90;;;;;;5012206;28;20091;-94
2021/06/29 10:08:41;;;;;;;26.73;10.30;;;23.50;99.90;;;;;;5012041;28;20077;-95
2021/06/29 10:11:23;;;;;;;29.38;10.63;;;23.60;99.90;;;;;;4996326;28;20141;-93
2021/06/29 10:13:54;;;;;;;37.97;11.25;;;23.50;99.90;;;;;;5008969;28;20053;-89
2021/06/29 10:16:24;;;;;;;34.40;11.05;;;23.50;99.90;;;;;;5031622;28;20068;-87
2021/06/29 10:18:54;;;;;;;19.92;9.23;;;23.40;99.90;;;;;;5024026;28;20127;-88
2021/06/29 10:21:24;;;;;;;31.35;10.57;;;23.40;99.90;;;;;;5038334;28;20045;-87
2021/06/29 10:23:51;;;;;;;;;;;23.50;99.90;;;;;;5017242;28;20541;-89
2021/06/29 10:26:18;;;;;;;33.00;10.95;;;23.60;99.90;;;;;;5022840;28;20380;-88
2021/06/29 10:28:45;;;;;;;34.05;11.20;;;23.60;99.90;;;;;;5013529;28;20486;-89
2021/06/29 10:31:29;;;;;;;25.17;10.68;;;23.50;99.90;;;;;;5024058;28;20156;-88
2021/06/29 10:34:02;;;;;;;30.48;12.50;;;23.40;99.90;;;;;;5009781;28;20057;-86
2021/06/29 10:36:30;;;;;;;27.45;11.23;;;23.20;99.90;;;;;;5022085;28;20037;-87
2021/06/29 10:38:58;;;;;;;28.75;11.65;;;23.10;99.90;;;;;;5018496;28;20038;-87
2021/06/29 10:41:25;;;;;;;27.38;10.60;;;23.10;99.90;;;;;;5015600;28;20076;-88
2021/06/29 10:43:52;;;;;;;22.50;10.73;;;23.20;99.90;;;;;;5023540;28;20072;-90
2021/06/29 10:46:40;;;;;;;19.63;10.35;;;23.10;99.90;;;;;;5018950;28;20042;-87
2021/06/29 10:49:28;;;;;;;20.42;10.40;;;23.10;99.90;;;;;;5021214;28;20065;-87
2021/06/29 10:51:56;;;;;;;;;;;23.00;99.90;;;;;;5015694;28;20094;-89
2021/06/29 10:54:43;;;;;;;34.03;11.25;;;22.90;99.90;;;;;;5040974;28;19921;-85
2021/06/29 10:57:13;;;;;;;35.53;12.05;;;22.90;99.90;;;;;;5028946;28;20045;-87
2021/06/29 10:59:40;;;;;;;;;;;22.70;99.90;;;;;;5015870;28;20045;-86
2021/06/29 11:02:07;;;;;;;33.72;11.50;;;22.70;99.90;;;;;;5035206;28;20278;-85
2021/06/29 11:04:54;;;;;;;33.17;13.27;;;22.80;99.90;;;;;;5002245;28;20063;-88
2021/06/29 11:07:26;;;;;;;26.42;11.57;;;22.60;99.90;;;;;;5029752;28;20483;-88
2021/06/29 11:09:54;;;;;;;28.65;11.52;;;22.50;99.90;;;;;;5032225;28;20053;-92
2021/06/29 11:12:22;;;;;;;28.02;13.02;;;22.50;99.90;;;;;;4993387;28;20053;-87
2021/06/29 11:14:49;;;;;;;24.48;11.40;;;22.50;99.90;;;;;;5032951;28;20048;-87
2021/06/29 11:17:19;;;;;;;27.83;12.68;;;22.40;99.90;;;;;;5012002;28;20049;-89
2021/06/29 11:20:00;;;;;;;26.60;11.80;;;22.30;99.90;;;;;;5025790;28;20545;-87
2021/06/29 11:22:56;;;;;;;33.80;12.73;;;22.30;99.90;;;;;;5028599;28;20413;-90
2021/06/29 11:25:53;;;;;;;33.13;13.07;;;22.20;99.90;;;;;;5013620;28;20045;-89
2021/06/29 11:28:30;;;;;;;31.58;13.00;;;22.30;99.90;;;;;;5030632;28;20084;-91
2021/06/29 11:31:10;;;;;;;25.25;11.80;;;22.30;99.90;;;;;;5010091;28;20485;-91
2021/06/29 11:33:58;;;;;;;29.45;12.80;;;22.50;99.90;;;;;;5035164;28;20084;-90
2021/06/29 11:36:24;;;;;;;29.60;13.00;;;22.60;99.90;;;;;;5021091;28;20485;-89
2021/06/29 11:38:54;;;;;;;26.92;12.65;;;22.50;99.90;;;;;;5030713;28;20044;-89
2021/06/29 11:41:34;;;;;;;;;;;22.60;99.90;;;;;;5031481;28;20056;-88
2021/06/29 11:44:05;;;;;;;;;;;22.70;99.90;;;;;;5015051;28;20016;-89
2021/06/29 11:47:00;;;;;;;28.92;13.75;;;22.80;99.90;;;;;;5035340;28;19936;-89
2021/06/29 11:49:29;;;;;;;29.52;17.10;;;23.00;99.90;;;;;;5002934;28;20050;-90
2021/06/29 11:52:03;;;;;;;31.65;15.60;;;23.10;99.90;;;;;;5022186;28;20042;-90
2021/06/29 11:54:38;;;;;;;26.90;12.38;;;23.20;99.90;;;;;;5012009;28;20053;-91
2021/06/29 11:57:18;;;;;;;29.50;11.30;;;23.30;99.90;;;;;;5011701;28;20072;-90
2021/06/29 11:59:43;;;;;;;;;;;23.20;99.90;;;;;;5013392;28;20042;-90
2021/06/29 12:02:16;;;;;;;25.85;12.07;;;23.40;99.90;;;;;;5026713;28;19932;-89
2021/06/29 12:04:58;;;;;;;20.67;9.80;;;23.40;99.90;;;;;;5012539;28;20049;-89
2021/06/29 12:07:41;;;;;;;25.25;10.18;;;23.30;99.90;;;;;;5012166;28;20081;-89
2021/06/29 12:10:13;;;;;;;25.75;11.43;;;23.40;99.90;;;;;;5010791;28;20113;-90
2021/06/29 12:12:44;;;;;;;23.70;10.45;;;23.40;99.90;;;;;;5012565;28;20129;-89
2021/06/29 12:15:12;;;;;;;21.70;10.90;;;23.40;99.90;;;;;;5011308;28;20588;-90
2021/06/29 12:17:47;;;;;;;20.35;10.02;;;23.30;99.90;;;;;;5011284;28;20053;-89
2021/06/29 12:20:16;;;;;;;22.65;10.68;;;23.40;99.90;;;;;;5010973;28;20042;-88
2021/06/29 12:22:44;;;;;;;19.45;10.07;;;23.30;99.90;;;;;;5027382;28;20050;-88
2021/06/29 12:25:20;;;;;;;24.23;11.98;;;23.20;99.90;;;;;;5027056;28;20125;-89
2021/06/29 12:28:01;;;;;;;27.42;12.88;;;23.00;99.90;;;;;;5010872;28;20041;-89
2021/06/29 12:30:37;;;;;;;27.70;14.43;;;22.80;99.90;;;;;;5012396;28;20450;-88
2021/06/29 12:33:32;;;;;;;29.33;13.98;;;22.90;99.90;;;;;;5011344;28;20393;-89
2021/06/29 12:36:09;;;;;;;26.45;12.00;;;22.90;99.90;;;;;;5011914;28;20048;-91
2021/06/29 12:38:37;;;;;;;29.48;13.60;;;23.00;99.90;;;;;;5008799;28;20120;-88
2021/06/29 12:41:14;;;;;;;30.55;13.68;;;22.80;99.90;;;;;;5024665;28;20045;-90
2021/06/29 12:43:41;;;;;;;30.08;14.30;;;22.50;99.90;;;;;;5010371;28;20050;-89